This is the latest recevied weather packets stored in our database for station/object DL7MAP-13. If no packets are shown the sender has not sent any weather packets the latest 10 day(s).
| Time | Temp. | Humidity | Pressure | Rain* | Wind** | Luminosity | Snow |
|---|---|---|---|---|---|---|---|
| 1777849087 | 22.22° C | 38% | 1005.3 hPa | - | - | - | - |
| 1777848187 | 21.67° C | 41% | 1005.4 hPa | - | - | - | - |
| 1777847287 | 21.67° C | 43% | 1005.2 hPa | - | - | - | - |
| 1777846387 | 19.44° C | 52% | 1005 hPa | - | - | - | - |
| 1777845487 | 19.44° C | 54% | 1005.2 hPa | - | - | - | - |
| 1777844587 | 18.89° C | 56% | 1005.2 hPa | - | - | - | - |
| 1777843687 | 19.44° C | 53% | 1005.3 hPa | - | - | - | - |
| 1777842787 | 19.44° C | 52% | 1005.2 hPa | - | - | - | - |
| 1777841887 | 20° C | 50% | 1005.2 hPa | - | - | - | - |
| 1777840987 | 21.11° C | 46% | 1005.4 hPa | - | - | - | - |
| 1777840088 | 21.67° C | 42% | 1005.4 hPa | - | - | - | - |
| 1777839187 | 22.22° C | 42% | 1004.8 hPa | - | - | - | - |
| 1777838286 | 22.22° C | 43% | 1004.8 hPa | - | - | - | - |
| 1777837387 | 21.11° C | 48% | 1004.2 hPa | - | - | - | - |
| 1777836487 | 21.11° C | 47% | 1004.7 hPa | - | - | - | - |
| 1777835587 | 21.67° C | 46% | 1004.3 hPa | - | - | - | - |
| 1777834687 | 22.78° C | 43% | 1004.6 hPa | - | - | - | - |
| 1777833787 | 23.33° C | 41% | 1004.5 hPa | - | - | - | - |
| 1777832887 | 24.44° C | 38% | 1004.4 hPa | - | - | - | - |
| 1777831987 | 25.56° C | 34% | 1004.5 hPa | - | - | - | - |
| 1777831087 | 26.11° C | 32% | 1004.7 hPa | - | - | - | - |
| 1777830186 | 26.67° C | 30% | 1004.1 hPa | - | - | - | - |
| 1777829287 | 27.22° C | 28% | 1004.4 hPa | - | - | - | - |
| 1777828387 | 27.22° C | 27% | 1005.2 hPa | - | - | - | - |
| 1777827487 | 27.78° C | 26% | 1004.7 hPa | - | - | - | - |
* Rain since midnight (hover to see other rain measurements)
** Current wind speed in m/s (hover to see current wind gust speed)